Decoded Metar for K1P1 (PLYMOUTH in NH, USA) (IATA:1P1) | Meteo·Mobile Aviation Weather
aviador You're here:

K1P1 Decoded Metar

PLYMOUTH in NH, USA
Report Time2019-03-22 13:55:00
UTC Time2019-03-22 14:09:55
Flight Rules ifr IFR
WindCalm
Visibility3219 m
Phenomena:Light Snow
Clouds:Broken 010 Hf
Overcast 017 Hf
Ceiling1,000 ft
Temp01°C (ISA -13)
Dew Point01°C (100% RH)
AAT-0.8°C
QNH994 hPa
Density Alt-331 ft
Elevation505 ft
Report Wrong Elevation
Raw Report
K1P1 221355Z AUTO 00000KT 2SM -SN BKN010 OVC017 01/01 A2936 RMK
AO2 P0002 T00100005=

Extra information for K1P1:More info

Metar Taf Metar & Taf Last 4 Metars F.Rules Stats Wind Profile Meteogram Temp Stats Airport Information Weather charts Add Link Nearby VenuesMetar ALERT Operation Metar Decoded Social comments

AIRNAV info for K1P1